createdAt,value
2018-10-05T00:02:01.276Z,90.50
2018-10-05T00:04:29.814Z,90.20
2018-10-05T00:06:58.392Z,89.70
2018-10-05T00:09:26.942Z,89.40
2018-10-05T00:11:55.515Z,89.80
2018-10-05T00:14:24.080Z,89.50
2018-10-05T00:16:52.651Z,90.00
2018-10-05T00:19:21.192Z,89.90
2018-10-05T00:21:49.763Z,89.80
2018-10-05T00:24:18.312Z,89.40
2018-10-05T00:26:46.921Z,89.00
2018-10-05T00:29:15.489Z,89.00
2018-10-05T00:31:44.072Z,88.80
2018-10-05T00:34:12.617Z,88.80
2018-10-05T00:36:41.195Z,89.30
2018-10-05T00:39:10.832Z,90.40
2018-10-05T00:41:39.480Z,90.00
2018-10-05T00:44:08.047Z,89.50
2018-10-05T00:46:36.604Z,89.20
2018-10-05T00:49:05.572Z,89.20
2018-10-05T00:51:34.164Z,88.90
2018-10-05T00:54:02.756Z,89.40
2018-10-05T00:56:31.924Z,89.30
2018-10-05T00:59:00.503Z,89.30
2018-10-05T01:01:29.048Z,89.80
2018-10-05T01:03:57.626Z,90.10
2018-10-05T01:06:26.183Z,89.60
2018-10-05T01:08:54.770Z,89.40
2018-10-05T01:11:23.318Z,89.50
2018-10-05T01:13:51.917Z,89.30
2018-10-05T01:16:20.501Z,89.50
2018-10-05T01:18:49.194Z,90.00
2018-10-05T01:21:17.844Z,90.20
2018-10-05T01:23:46.401Z,90.00
2018-10-05T01:26:14.944Z,90.00
2018-10-05T01:28:43.709Z,89.90
2018-10-05T01:31:12.341Z,89.60
2018-10-05T01:33:40.914Z,90.00
2018-10-05T01:36:09.478Z,90.30
2018-10-05T01:38:38.065Z,90.10
2018-10-05T01:41:06.620Z,90.30
2018-10-05T01:43:35.189Z,90.60
2018-10-05T01:46:03.721Z,90.30
2018-10-05T01:48:32.294Z,89.80
2018-10-05T01:51:00.898Z,90.10
2018-10-05T01:53:29.479Z,90.00
2018-10-05T01:55:58.027Z,90.00
2018-10-05T01:58:26.634Z,90.00
2018-10-05T02:00:55.177Z,89.80
2018-10-05T02:03:23.744Z,90.00
2018-10-05T02:05:52.294Z,90.00
2018-10-05T02:08:20.857Z,90.00
2018-10-05T02:10:49.451Z,90.00
2018-10-05T02:13:18.024Z,90.10
2018-10-05T02:15:46.579Z,90.00
2018-10-05T02:18:15.138Z,89.70
2018-10-05T02:20:43.692Z,89.80
2018-10-05T02:23:12.266Z,90.00
2018-10-05T02:25:40.788Z,89.80
2018-10-05T02:28:09.353Z,90.00
2018-10-05T02:30:37.911Z,89.80
2018-10-05T02:33:07.002Z,90.30
2018-10-05T02:35:35.963Z,90.00
2018-10-05T02:38:04.536Z,90.50
2018-10-05T02:40:33.088Z,90.70
2018-10-05T02:43:01.701Z,90.60
2018-10-05T02:45:30.523Z,90.30
2018-10-05T02:47:59.771Z,90.30
2018-10-05T02:50:28.347Z,90.10
2018-10-05T02:52:56.892Z,89.90
2018-10-05T02:55:25.424Z,90.20
2018-10-05T02:57:54.049Z,90.30
2018-10-05T03:00:34.471Z,90.10
2018-10-05T03:03:03.047Z,90.20
2018-10-05T03:05:31.591Z,90.10
2018-10-05T03:08:00.158Z,90.30
2018-10-05T03:10:28.699Z,90.20
2018-10-05T03:12:57.240Z,90.30
2018-10-05T03:15:25.820Z,90.20
2018-10-05T03:17:54.529Z,90.30
2018-10-05T03:20:23.115Z,90.20
2018-10-05T03:22:52.104Z,90.10
2018-10-05T03:25:20.903Z,90.20
2018-10-05T03:27:49.435Z,90.10
2018-10-05T03:30:18.048Z,90.10
2018-10-05T03:32:46.625Z,90.50
2018-10-05T03:35:15.248Z,90.20
2018-10-05T03:37:43.811Z,90.30
2018-10-05T03:40:12.373Z,90.40
2018-10-05T03:42:40.949Z,90.40
2018-10-05T03:45:09.580Z,90.50
2018-10-05T03:47:38.137Z,90.40
2018-10-05T03:50:06.768Z,90.40
2018-10-05T03:52:35.316Z,90.50
2018-10-05T03:55:03.914Z,90.60
2018-10-05T03:57:32.444Z,90.40
2018-10-05T04:00:01.266Z,90.40
2018-10-05T04:02:29.942Z,90.30
2018-10-05T04:04:58.506Z,90.50
2018-10-05T04:07:27.056Z,90.50
2018-10-05T04:09:55.623Z,90.70
2018-10-05T04:12:24.228Z,90.70
2018-10-05T04:14:52.812Z,90.90
2018-10-05T04:17:21.369Z,90.70
2018-10-05T04:19:49.932Z,90.90
2018-10-05T04:22:24.372Z,91.40
2018-10-05T04:24:52.940Z,91.80
2018-10-05T04:27:21.632Z,91.20
2018-10-05T04:29:50.230Z,91.00
2018-10-05T04:32:18.891Z,91.20
2018-10-05T04:34:47.713Z,91.10
2018-10-05T04:37:16.754Z,91.50
2018-10-05T04:39:45.337Z,91.60
2018-10-05T04:42:13.879Z,91.50
2018-10-05T04:44:42.437Z,91.80
2018-10-05T04:47:10.980Z,91.40
2018-10-05T04:49:39.605Z,91.10
2018-10-05T04:52:08.149Z,90.90
2018-10-05T04:54:36.728Z,91.10
2018-10-05T04:57:05.279Z,90.80
2018-10-05T04:59:33.925Z,90.80
2018-10-05T05:02:02.660Z,90.70
2018-10-05T05:04:31.221Z,90.60
2018-10-05T05:06:59.777Z,90.60
2018-10-05T05:09:28.348Z,90.60
2018-10-05T05:11:56.918Z,90.70
2018-10-05T05:14:25.520Z,90.80
2018-10-05T05:16:54.079Z,91.10
2018-10-05T05:19:22.636Z,90.90
2018-10-05T05:21:51.186Z,91.30
2018-10-05T05:24:19.750Z,91.00
2018-10-05T05:26:48.403Z,91.00
2018-10-05T05:29:16.990Z,90.90
2018-10-05T05:31:45.531Z,91.60
2018-10-05T05:34:14.126Z,91.20
2018-10-05T05:36:42.905Z,91.10
2018-10-05T05:39:11.460Z,91.00
2018-10-05T05:41:40.055Z,90.90
2018-10-05T05:44:08.660Z,90.90
2018-10-05T05:46:37.303Z,90.90
2018-10-05T05:49:06.020Z,90.90
2018-10-05T05:51:34.627Z,90.90
2018-10-05T05:54:03.271Z,90.80
2018-10-05T05:56:31.848Z,90.80
2018-10-05T05:59:00.398Z,90.80
2018-10-05T06:01:28.976Z,90.90
2018-10-05T06:03:57.571Z,90.90
2018-10-05T06:06:26.165Z,90.90
2018-10-05T06:08:55.411Z,91.10
2018-10-05T06:11:24.000Z,91.30
2018-10-05T06:13:52.540Z,91.30
2018-10-05T06:16:21.196Z,91.20
2018-10-05T06:18:49.709Z,91.20
2018-10-05T06:21:18.293Z,92.00
2018-10-05T06:23:46.893Z,91.60
2018-10-05T06:26:15.508Z,91.80
2018-10-05T06:28:44.051Z,91.50
2018-10-05T06:31:12.676Z,91.40
2018-10-05T06:33:41.246Z,91.50
2018-10-05T06:36:09.935Z,91.70
2018-10-05T06:38:38.488Z,91.50
2018-10-05T06:41:07.215Z,91.30
2018-10-05T06:43:35.982Z,91.20
2018-10-05T06:46:04.630Z,91.10
2018-10-05T06:48:33.186Z,90.80
2018-10-05T06:51:01.766Z,90.70
2018-10-05T06:53:30.477Z,90.80
2018-10-05T06:55:59.155Z,91.10
2018-10-05T06:58:27.718Z,90.90
2018-10-05T07:00:56.287Z,91.50
2018-10-05T07:03:25.683Z,91.30
2018-10-05T07:05:54.908Z,91.30
2018-10-05T07:08:24.476Z,91.30
2018-10-05T07:10:53.079Z,91.50
2018-10-05T07:13:22.301Z,91.50
2018-10-05T07:15:51.007Z,91.70
2018-10-05T07:18:19.645Z,91.70
2018-10-05T07:20:49.672Z,91.60
2018-10-05T07:23:18.642Z,91.60
2018-10-05T07:25:48.221Z,91.40
2018-10-05T07:28:16.886Z,91.30
2018-10-05T07:30:45.353Z,91.30
2018-10-05T07:33:13.918Z,91.20
2018-10-05T07:35:42.791Z,90.70
2018-10-05T07:38:11.411Z,90.50
2018-10-05T07:40:39.974Z,90.50
2018-10-05T07:43:08.645Z,90.50
2018-10-05T07:45:37.135Z,90.40
2018-10-05T07:48:05.900Z,90.20
2018-10-05T07:50:34.487Z,90.10
2018-10-05T07:53:03.074Z,90.10
2018-10-05T07:55:31.640Z,90.10
2018-10-05T07:58:00.249Z,90.00
2018-10-05T08:00:28.754Z,90.00
2018-10-05T08:02:57.327Z,89.40
2018-10-05T08:05:25.871Z,89.30
2018-10-05T08:07:54.583Z,89.00
2018-10-05T08:10:23.252Z,89.00
2018-10-05T08:12:51.826Z,89.10
2018-10-05T08:15:20.613Z,88.60
2018-10-05T08:17:49.453Z,88.30
2018-10-05T08:20:18.118Z,88.20
2018-10-05T08:22:46.693Z,88.30
2018-10-05T08:25:15.390Z,88.20
2018-10-05T08:27:44.028Z,88.00
2018-10-05T08:30:12.606Z,87.50
2018-10-05T08:32:41.381Z,87.60
2018-10-05T08:35:09.923Z,87.10
2018-10-05T08:37:38.887Z,87.00
2018-10-05T08:40:08.770Z,85.80
2018-10-05T08:42:37.300Z,85.30
2018-10-05T08:45:05.908Z,85.30
2018-10-05T08:47:34.561Z,84.70
2018-10-05T08:50:03.132Z,84.90
2018-10-05T08:52:32.075Z,84.50
2018-10-05T08:55:00.596Z,84.00
2018-10-05T08:57:29.559Z,82.50
2018-10-05T08:59:58.395Z,82.80
2018-10-05T09:02:26.980Z,82.70
2018-10-05T09:04:55.539Z,82.70
2018-10-05T09:07:24.694Z,81.80
2018-10-05T09:09:53.535Z,81.10
2018-10-05T09:12:22.109Z,80.50
2018-10-05T09:14:50.793Z,80.50
2018-10-05T09:17:19.453Z,79.70
2018-10-05T09:19:48.037Z,78.80
2018-10-05T09:22:16.653Z,78.30
2018-10-05T09:24:45.272Z,77.90
2018-10-05T09:27:13.878Z,77.40
2018-10-05T09:29:42.433Z,76.80
2018-10-05T09:32:10.983Z,76.20
2018-10-05T09:34:39.504Z,75.30
2018-10-05T09:37:08.154Z,74.90
2018-10-05T09:39:37.030Z,73.80
2018-10-05T09:42:05.613Z,72.90
2018-10-05T09:44:34.348Z,72.80
2018-10-05T09:47:03.152Z,72.40
2018-10-05T09:49:31.717Z,71.90
2018-10-05T09:52:00.486Z,71.10
2018-10-05T09:54:29.028Z,70.00
2018-10-05T09:56:57.710Z,69.10
2018-10-05T09:59:26.313Z,68.90
2018-10-05T10:02:00.281Z,68.50
2018-10-05T10:04:28.865Z,68.00
2018-10-05T10:06:57.410Z,68.30
2018-10-05T10:09:25.963Z,67.80
2018-10-05T10:11:54.512Z,67.50
2018-10-05T10:14:23.122Z,66.50
2018-10-05T10:16:51.651Z,66.60
2018-10-05T10:19:20.227Z,66.80
2018-10-05T10:21:48.860Z,67.60
2018-10-05T10:24:17.357Z,65.50
2018-10-05T10:26:45.906Z,65.40
2018-10-05T10:29:15.289Z,65.60
2018-10-05T10:31:43.637Z,63.90
2018-10-05T10:34:12.196Z,62.50
2018-10-05T10:36:40.749Z,59.50
2018-10-05T10:39:09.315Z,57.30
2018-10-05T10:41:37.848Z,55.00
2018-10-05T10:44:06.432Z,53.80
2018-10-05T10:46:35.202Z,52.30
2018-10-05T10:49:03.764Z,51.20
2018-10-05T10:51:32.305Z,50.50
2018-10-05T10:54:00.942Z,49.30
2018-10-05T10:56:29.495Z,47.60
2018-10-05T10:58:58.040Z,46.00
2018-10-05T11:01:26.572Z,45.00
2018-10-05T11:03:55.142Z,44.00
2018-10-05T11:06:23.707Z,42.90
2018-10-05T11:08:52.262Z,42.00
2018-10-05T11:11:20.807Z,41.50
2018-10-05T11:13:49.360Z,40.30
2018-10-05T11:16:18.016Z,39.80
2018-10-05T11:18:46.586Z,38.60
2018-10-05T11:21:15.150Z,38.00
2018-10-05T11:23:43.728Z,36.80
2018-10-05T11:26:12.261Z,36.00
2018-10-05T11:28:40.792Z,35.10
2018-10-05T11:31:09.339Z,33.40
2018-10-05T11:33:37.889Z,33.20
2018-10-05T11:36:06.452Z,33.00
2018-10-05T11:38:35.431Z,33.10
2018-10-05T11:41:04.847Z,33.10
2018-10-05T11:43:33.469Z,31.80
2018-10-05T11:46:02.074Z,32.50
2018-10-05T11:48:30.708Z,32.30
2018-10-05T11:50:59.275Z,32.20
2018-10-05T11:53:27.950Z,30.90
2018-10-05T11:55:56.516Z,30.20
2018-10-05T11:58:25.047Z,30.30
2018-10-05T12:00:53.635Z,30.10
2018-10-05T12:03:22.164Z,30.10
2018-10-05T12:05:50.736Z,29.80
2018-10-05T12:08:19.260Z,28.90
2018-10-05T12:10:47.823Z,29.70
2018-10-05T12:13:16.382Z,28.90
2018-10-05T12:15:44.931Z,28.40
2018-10-05T12:18:13.460Z,28.30
2018-10-05T12:20:42.017Z,27.90
2018-10-05T12:23:10.557Z,27.60
2018-10-05T12:25:39.129Z,27.00
2018-10-05T12:28:07.714Z,26.80
2018-10-05T12:30:36.284Z,26.50
2018-10-05T12:33:04.825Z,26.60
2018-10-05T12:35:33.403Z,26.70
2018-10-05T12:38:03.204Z,26.00
2018-10-05T12:40:31.765Z,25.90
2018-10-05T12:43:00.290Z,24.90
2018-10-05T12:45:28.886Z,24.90
2018-10-05T12:47:57.440Z,24.50
2018-10-05T12:50:26.159Z,23.70
2018-10-05T12:52:54.707Z,24.10
2018-10-05T12:55:23.293Z,24.40
2018-10-05T12:57:51.871Z,24.10
2018-10-05T13:00:20.439Z,24.80
2018-10-05T13:02:49.010Z,24.70
2018-10-05T13:05:17.567Z,24.40
2018-10-05T13:07:46.122Z,24.60
2018-10-05T13:10:14.710Z,24.40
2018-10-05T13:12:43.260Z,24.60
2018-10-05T13:15:11.890Z,24.60
2018-10-05T13:17:40.612Z,23.50
2018-10-05T13:20:09.187Z,23.90
2018-10-05T13:22:37.728Z,23.70
2018-10-05T13:25:06.327Z,24.40
2018-10-05T13:27:34.880Z,23.70
2018-10-05T13:30:03.479Z,23.40
2018-10-05T13:32:32.038Z,22.90
2018-10-05T13:35:00.692Z,22.90
2018-10-05T13:37:29.355Z,23.40
2018-10-05T13:39:58.178Z,22.60
2018-10-05T13:42:26.743Z,22.60
2018-10-05T13:44:55.355Z,23.00
2018-10-05T13:47:23.915Z,22.30
2018-10-05T13:49:52.502Z,22.10
2018-10-05T13:52:21.076Z,22.90
2018-10-05T13:54:49.636Z,23.50
2018-10-05T13:57:18.190Z,22.70
2018-10-05T13:59:46.841Z,23.60
2018-10-05T14:02:15.476Z,22.30
2018-10-05T14:04:44.025Z,21.80
2018-10-05T14:07:12.815Z,22.00
2018-10-05T14:09:41.238Z,22.90
2018-10-05T14:12:09.813Z,23.00
2018-10-05T14:14:38.340Z,23.60
2018-10-05T14:17:07.188Z,23.50
2018-10-05T14:19:35.770Z,23.60
2018-10-05T14:22:04.348Z,23.40
2018-10-05T14:24:32.939Z,22.30
2018-10-05T14:27:01.507Z,21.70
2018-10-05T14:29:30.048Z,21.40
2018-10-05T14:31:58.639Z,21.30
2018-10-05T14:34:27.207Z,22.40
2018-10-05T14:36:55.794Z,23.50
2018-10-05T14:39:24.331Z,22.70
2018-10-05T14:41:52.950Z,22.00
2018-10-05T14:44:21.494Z,21.70
2018-10-05T14:46:50.297Z,22.40
2018-10-05T14:49:18.936Z,22.50
2018-10-05T14:51:47.480Z,22.70
2018-10-05T14:54:16.051Z,23.00
2018-10-05T14:56:44.611Z,22.90
2018-10-05T14:59:13.163Z,23.20
2018-10-05T15:01:41.769Z,23.50
2018-10-05T15:04:10.327Z,22.70
2018-10-05T15:06:38.893Z,22.50
2018-10-05T15:09:07.439Z,23.20
2018-10-05T15:11:36.040Z,22.80
2018-10-05T15:14:04.734Z,23.00
2018-10-05T15:16:33.331Z,23.20
2018-10-05T15:19:01.879Z,22.70
2018-10-05T15:21:30.524Z,22.00
2018-10-05T15:23:59.027Z,21.60
2018-10-05T15:26:27.622Z,21.60
2018-10-05T15:28:56.157Z,21.90
2018-10-05T15:31:24.720Z,22.80
2018-10-05T15:33:53.261Z,22.30
2018-10-05T15:36:21.840Z,22.30
2018-10-05T15:38:50.393Z,22.10
2018-10-05T15:41:19.001Z,21.90
2018-10-05T15:43:47.545Z,21.90
2018-10-05T15:47:20.596Z,22.20
2018-10-05T15:49:49.205Z,22.30
2018-10-05T15:52:17.788Z,22.40
2018-10-05T15:54:46.309Z,22.80
2018-10-05T15:57:14.879Z,22.80
2018-10-05T15:59:43.580Z,23.10
2018-10-05T16:02:12.163Z,23.50
2018-10-05T16:04:40.724Z,23.70
2018-10-05T16:07:09.289Z,23.90
2018-10-05T16:09:37.833Z,24.20
2018-10-05T16:12:06.621Z,24.50
2018-10-05T16:14:35.386Z,24.90
2018-10-05T16:17:04.003Z,25.30
2018-10-05T16:19:32.548Z,26.00
2018-10-05T16:22:01.124Z,27.00
2018-10-05T16:24:36.437Z,28.10
2018-10-05T16:27:05.271Z,29.20
2018-10-05T16:29:34.223Z,30.20
2018-10-05T16:32:02.850Z,31.70
2018-10-05T16:34:31.489Z,32.70
2018-10-05T16:37:00.093Z,34.00
2018-10-05T16:39:29.005Z,35.20
2018-10-05T16:41:57.560Z,35.90
2018-10-05T16:44:26.142Z,37.10
2018-10-05T16:46:54.738Z,38.20
2018-10-05T16:49:23.300Z,39.50
2018-10-05T16:51:51.866Z,40.40
2018-10-05T16:54:20.439Z,41.40
2018-10-05T16:56:49.091Z,42.50
2018-10-05T16:59:17.628Z,43.30
2018-10-05T17:01:46.498Z,44.20
2018-10-05T17:04:15.225Z,44.90
2018-10-05T17:06:43.774Z,46.30
2018-10-05T17:09:13.303Z,46.20
2018-10-05T17:11:43.300Z,46.70
2018-10-05T17:14:11.987Z,47.50
2018-10-05T17:16:40.768Z,47.90
2018-10-05T17:19:09.368Z,48.20
2018-10-05T17:21:37.938Z,48.70
2018-10-05T17:24:06.672Z,49.00
2018-10-05T17:26:35.291Z,49.90
2018-10-05T17:29:03.843Z,50.10
2018-10-05T17:31:32.387Z,50.50
2018-10-05T17:34:01.149Z,51.10
2018-10-05T17:36:29.794Z,51.60
2018-10-05T17:38:58.399Z,52.00
2018-10-05T17:41:26.958Z,52.30
2018-10-05T17:43:55.679Z,53.00
2018-10-05T17:46:24.258Z,53.50
2018-10-05T17:48:52.837Z,53.80
2018-10-05T17:51:21.398Z,54.40
2018-10-05T17:53:49.964Z,54.90
2018-10-05T17:56:18.513Z,55.20
2018-10-05T17:58:47.107Z,55.60
2018-10-05T18:01:15.757Z,56.30
2018-10-05T18:03:44.341Z,57.00
2018-10-05T18:06:12.884Z,58.40
2018-10-05T18:08:41.481Z,58.70
2018-10-05T18:11:10.031Z,59.30
2018-10-05T18:13:38.605Z,60.70
2018-10-05T18:16:07.209Z,61.70
2018-10-05T18:18:35.788Z,62.00
2018-10-05T18:21:04.378Z,62.60
2018-10-05T18:23:33.793Z,63.90
2018-10-05T18:26:02.380Z,64.30
2018-10-05T18:28:30.986Z,64.30
2018-10-05T18:30:59.550Z,65.10
2018-10-05T18:33:28.185Z,64.90
2018-10-05T18:35:56.733Z,66.10
2018-10-05T18:40:50.622Z,67.30
2018-10-05T18:43:19.331Z,68.00
2018-10-05T18:45:47.911Z,68.50
2018-10-05T18:48:16.532Z,69.30
2018-10-05T18:50:45.100Z,69.50
2018-10-05T18:53:13.745Z,70.40
2018-10-05T18:55:42.278Z,70.60
2018-10-05T18:58:10.883Z,71.20
2018-10-05T19:00:39.510Z,71.50
2018-10-05T19:03:08.104Z,71.90
2018-10-05T19:05:36.700Z,72.90
2018-10-05T19:08:05.301Z,73.20
2018-10-05T19:10:33.899Z,73.50
2018-10-05T19:13:02.485Z,73.50
2018-10-05T19:15:31.092Z,74.30
2018-10-05T19:17:59.675Z,74.20
2018-10-05T19:20:28.268Z,75.50
2018-10-05T19:22:57.124Z,75.30
2018-10-05T19:25:25.709Z,75.30
2018-10-05T19:27:54.315Z,76.00
2018-10-05T19:30:22.892Z,76.20
2018-10-05T19:32:51.438Z,76.50
2018-10-05T19:35:20.027Z,77.90
2018-10-05T19:37:48.638Z,77.30
2018-10-05T19:40:17.205Z,77.40
2018-10-05T19:42:45.743Z,78.60
2018-10-05T19:45:14.316Z,78.90
2018-10-05T19:47:42.898Z,78.70
2018-10-05T19:50:11.493Z,80.60
2018-10-05T19:52:40.739Z,81.60
2018-10-05T19:55:09.404Z,81.30
2018-10-05T19:57:37.992Z,82.50
2018-10-05T20:00:06.596Z,82.90
2018-10-05T20:02:35.193Z,82.30
2018-10-05T20:05:04.063Z,82.80
2018-10-05T20:07:32.667Z,82.90
2018-10-05T20:10:01.273Z,83.10
2018-10-05T20:12:29.933Z,82.80
2018-10-05T20:14:58.696Z,83.50
2018-10-05T20:17:27.320Z,84.00
2018-10-05T20:19:55.973Z,84.20
2018-10-05T20:22:24.567Z,85.70
2018-10-05T20:24:53.329Z,84.80
2018-10-05T20:27:21.915Z,85.00
2018-10-05T20:29:50.538Z,86.00
2018-10-05T20:32:19.183Z,85.30
2018-10-05T20:34:47.782Z,85.10
2018-10-05T20:37:16.955Z,85.00
2018-10-05T20:39:45.554Z,85.20
2018-10-05T20:42:14.162Z,85.40
2018-10-05T20:44:42.803Z,86.00
2018-10-05T20:47:11.483Z,86.10
2018-10-05T20:49:40.100Z,85.60
2018-10-05T20:52:08.674Z,87.10
2018-10-05T20:54:37.285Z,87.10
2018-10-05T20:57:05.962Z,88.00
2018-10-05T20:59:34.587Z,89.30
2018-10-05T21:02:03.166Z,90.00
2018-10-05T21:04:31.866Z,88.80
2018-10-05T21:07:00.514Z,89.60
2018-10-05T21:09:29.216Z,90.10
2018-10-05T21:11:57.935Z,89.60
2018-10-05T21:14:26.731Z,91.10
2018-10-05T21:16:55.334Z,91.60
2018-10-05T21:19:23.989Z,91.90
2018-10-05T21:21:52.617Z,91.60
2018-10-05T21:24:21.287Z,91.40
2018-10-05T21:26:49.893Z,92.10
2018-10-05T21:29:18.623Z,91.80
2018-10-05T21:31:47.268Z,92.00
2018-10-05T21:34:16.066Z,91.30
2018-10-05T21:36:44.691Z,91.00
2018-10-05T21:39:13.317Z,90.70
2018-10-05T21:41:42.030Z,90.60
2018-10-05T21:44:10.678Z,90.60
2018-10-05T21:46:39.512Z,90.70
2018-10-05T21:49:08.272Z,91.30
2018-10-05T21:51:37.028Z,91.00
2018-10-05T21:54:05.550Z,91.30
2018-10-05T21:56:34.159Z,91.20
2018-10-05T21:59:02.781Z,91.50
2018-10-05T22:01:31.400Z,91.40
2018-10-05T22:04:00.031Z,91.00
2018-10-05T22:06:28.738Z,90.70
2018-10-05T22:08:57.346Z,90.40
2018-10-05T22:11:25.927Z,90.40
2018-10-05T22:13:54.492Z,90.30
2018-10-05T22:16:23.324Z,90.20
2018-10-05T22:18:51.906Z,90.30
2018-10-05T22:21:20.503Z,90.30
2018-10-05T22:23:49.164Z,90.30
2018-10-05T22:26:17.814Z,90.40
2018-10-05T22:28:46.400Z,90.40
2018-10-05T22:31:15.007Z,90.30
2018-10-05T22:33:43.609Z,91.00
2018-10-05T22:36:12.244Z,91.10
2018-10-05T22:38:40.844Z,90.60
2018-10-05T22:41:09.473Z,90.30
2018-10-05T22:43:39.736Z,90.30
2018-10-05T22:46:08.810Z,90.10
2018-10-05T22:48:37.379Z,90.00
2018-10-05T22:51:06.274Z,90.30
2018-10-05T22:53:34.884Z,90.00
2018-10-05T22:56:03.532Z,90.10
2018-10-05T22:58:32.146Z,90.00
2018-10-05T23:01:00.834Z,90.30
2018-10-05T23:03:29.463Z,90.30
2018-10-05T23:05:58.216Z,90.00
2018-10-05T23:08:26.808Z,90.20
2018-10-05T23:10:55.540Z,90.30
2018-10-05T23:13:24.144Z,90.20
2018-10-05T23:15:52.753Z,90.10
2018-10-05T23:18:21.445Z,90.10
2018-10-05T23:20:50.108Z,90.10
2018-10-05T23:23:18.785Z,90.20
2018-10-05T23:25:47.410Z,90.30
2018-10-05T23:28:16.020Z,90.30
2018-10-05T23:30:44.824Z,90.40
2018-10-05T23:33:13.430Z,90.20
2018-10-05T23:35:42.046Z,90.60
2018-10-05T23:38:10.859Z,90.50
2018-10-05T23:40:39.566Z,90.60
2018-10-05T23:43:08.147Z,90.40
2018-10-05T23:45:36.730Z,90.60
2018-10-05T23:48:05.420Z,90.90
2018-10-05T23:50:34.039Z,91.00
2018-10-05T23:53:02.780Z,91.30
2018-10-05T23:55:31.413Z,91.10
2018-10-05T23:58:00.045Z,91.20
